sensor_id;sensor_type;location;lat;lon;timestamp;P1;durP1;ratioP1;P2;durP2;ratioP2
14472;SDS011;7322;50.872;4.386;2023-08-20T00:00:14;2.40;;;1.48;;
14472;SDS011;7322;50.872;4.386;2023-08-20T00:02:43;1.83;;;1.48;;
14472;SDS011;7322;50.872;4.386;2023-08-20T00:05:13;2.63;;;1.52;;
14472;SDS011;7322;50.872;4.386;2023-08-20T00:07:53;1.75;;;1.40;;
14472;SDS011;7322;50.872;4.386;2023-08-20T00:10:21;3.75;;;1.70;;
14472;SDS011;7322;50.872;4.386;2023-08-20T00:12:48;2.25;;;1.42;;
14472;SDS011;7322;50.872;4.386;2023-08-20T00:15:17;2.08;;;1.58;;
14472;SDS011;7322;50.872;4.386;2023-08-20T00:17:46;2.13;;;1.50;;
14472;SDS011;7322;50.872;4.386;2023-08-20T00:20:19;3.95;;;1.70;;
14472;SDS011;7322;50.872;4.386;2023-08-20T00:25:22;3.22;;;1.65;;
14472;SDS011;7322;50.872;4.386;2023-08-20T00:27:51;3.50;;;1.70;;
14472;SDS011;7322;50.872;4.386;2023-08-20T00:30:19;2.13;;;1.35;;
14472;SDS011;7322;50.872;4.386;2023-08-20T00:32:47;2.38;;;1.20;;
14472;SDS011;7322;50.872;4.386;2023-08-20T00:35:16;1.85;;;1.35;;
14472;SDS011;7322;50.872;4.386;2023-08-20T00:37:44;2.95;;;1.50;;
14472;SDS011;7322;50.872;4.386;2023-08-20T00:40:11;2.20;;;1.50;;
14472;SDS011;7322;50.872;4.386;2023-08-20T00:42:42;2.97;;;1.67;;
14472;SDS011;7322;50.872;4.386;2023-08-20T00:45:09;3.88;;;1.80;;
14472;SDS011;7322;50.872;4.386;2023-08-20T00:47:38;2.90;;;1.70;;
14472;SDS011;7322;50.872;4.386;2023-08-20T00:50:06;2.40;;;1.40;;
14472;SDS011;7322;50.872;4.386;2023-08-20T00:52:37;2.10;;;1.35;;
14472;SDS011;7322;50.872;4.386;2023-08-20T00:55:11;2.35;;;1.40;;
14472;SDS011;7322;50.872;4.386;2023-08-20T00:57:44;2.83;;;1.38;;
14472;SDS011;7322;50.872;4.386;2023-08-20T01:00:13;1.60;;;1.38;;
14472;SDS011;7322;50.872;4.386;2023-08-20T01:02:43;2.80;;;1.40;;
14472;SDS011;7322;50.872;4.386;2023-08-20T01:05:11;1.73;;;1.20;;
14472;SDS011;7322;50.872;4.386;2023-08-20T01:10:52;2.53;;;1.60;;
14472;SDS011;7322;50.872;4.386;2023-08-20T01:13:32;2.05;;;1.50;;
14472;SDS011;7322;50.872;4.386;2023-08-20T01:16:01;2.08;;;1.40;;
14472;SDS011;7322;50.872;4.386;2023-08-20T01:18:30;2.72;;;1.50;;
14472;SDS011;7322;50.872;4.386;2023-08-20T01:20:58;3.33;;;1.70;;
14472;SDS011;7322;50.872;4.386;2023-08-20T01:23:38;2.60;;;1.30;;
14472;SDS011;7322;50.872;4.386;2023-08-20T01:26:42;2.22;;;1.38;;
14472;SDS011;7322;50.872;4.386;2023-08-20T01:29:23;1.85;;;1.30;;
14472;SDS011;7322;50.872;4.386;2023-08-20T01:31:52;3.22;;;1.40;;
14472;SDS011;7322;50.872;4.386;2023-08-20T01:34:28;2.45;;;1.48;;
14472;SDS011;7322;50.872;4.386;2023-08-20T01:37:14;2.85;;;1.63;;
14472;SDS011;7322;50.872;4.386;2023-08-20T01:39:47;2.78;;;1.40;;
14472;SDS011;7322;50.872;4.386;2023-08-20T01:42:16;2.30;;;1.48;;
14472;SDS011;7322;50.872;4.386;2023-08-20T01:44:52;3.15;;;1.45;;
14472;SDS011;7322;50.872;4.386;2023-08-20T01:47:19;2.58;;;1.30;;
14472;SDS011;7322;50.872;4.386;2023-08-20T01:52:19;2.53;;;1.50;;
14472;SDS011;7322;50.872;4.386;2023-08-20T01:54:47;3.47;;;1.60;;
14472;SDS011;7322;50.872;4.386;2023-08-20T01:57:19;2.35;;;1.45;;
14472;SDS011;7322;50.872;4.386;2023-08-20T01:59:46;2.13;;;1.40;;
14472;SDS011;7322;50.872;4.386;2023-08-20T02:02:16;1.98;;;1.23;;
14472;SDS011;7322;50.872;4.386;2023-08-20T02:04:50;3.60;;;1.58;;
14472;SDS011;7322;50.872;4.386;2023-08-20T02:07:19;2.72;;;1.63;;
14472;SDS011;7322;50.872;4.386;2023-08-20T02:09:46;2.58;;;1.30;;
14472;SDS011;7322;50.872;4.386;2023-08-20T02:12:15;2.78;;;1.70;;
14472;SDS011;7322;50.872;4.386;2023-08-20T02:14:43;2.17;;;1.35;;
14472;SDS011;7322;50.872;4.386;2023-08-20T02:19:46;3.38;;;1.48;;
14472;SDS011;7322;50.872;4.386;2023-08-20T02:22:13;3.15;;;1.48;;
14472;SDS011;7322;50.872;4.386;2023-08-20T02:27:15;2.20;;;1.50;;
14472;SDS011;7322;50.872;4.386;2023-08-20T02:29:44;3.22;;;1.50;;
14472;SDS011;7322;50.872;4.386;2023-08-20T02:32:13;2.53;;;1.50;;
14472;SDS011;7322;50.872;4.386;2023-08-20T02:34:45;1.77;;;1.40;;
14472;SDS011;7322;50.872;4.386;2023-08-20T02:37:16;2.75;;;1.50;;
14472;SDS011;7322;50.872;4.386;2023-08-20T02:39:44;2.90;;;1.40;;
14472;SDS011;7322;50.872;4.386;2023-08-20T02:42:13;3.33;;;1.83;;
14472;SDS011;7322;50.872;4.386;2023-08-20T02:44:46;3.70;;;1.60;;
14472;SDS011;7322;50.872;4.386;2023-08-20T02:47:14;2.90;;;1.27;;
14472;SDS011;7322;50.872;4.386;2023-08-20T02:49:51;2.40;;;1.42;;
14472;SDS011;7322;50.872;4.386;2023-08-20T02:52:26;2.65;;;1.40;;
14472;SDS011;7322;50.872;4.386;2023-08-20T02:57:30;3.17;;;1.40;;
14472;SDS011;7322;50.872;4.386;2023-08-20T03:00:02;3.38;;;1.70;;
14472;SDS011;7322;50.872;4.386;2023-08-20T03:02:30;3.05;;;1.42;;
14472;SDS011;7322;50.872;4.386;2023-08-20T03:04:59;1.88;;;1.27;;
14472;SDS011;7322;50.872;4.386;2023-08-20T03:07:27;3.10;;;1.50;;
14472;SDS011;7322;50.872;4.386;2023-08-20T03:10:02;2.42;;;1.50;;
14472;SDS011;7322;50.872;4.386;2023-08-20T03:12:36;2.75;;;1.58;;
14472;SDS011;7322;50.872;4.386;2023-08-20T03:15:04;2.53;;;1.70;;
14472;SDS011;7322;50.872;4.386;2023-08-20T03:17:33;2.83;;;1.30;;
14472;SDS011;7322;50.872;4.386;2023-08-20T03:20:02;2.22;;;1.50;;
14472;SDS011;7322;50.872;4.386;2023-08-20T03:22:33;2.53;;;1.45;;
14472;SDS011;7322;50.872;4.386;2023-08-20T03:25:05;2.38;;;1.50;;
14472;SDS011;7322;50.872;4.386;2023-08-20T03:27:33;2.05;;;1.48;;
14472;SDS011;7322;50.872;4.386;2023-08-20T03:30:00;2.13;;;1.17;;
14472;SDS011;7322;50.872;4.386;2023-08-20T03:32:28;2.08;;;1.33;;
14472;SDS011;7322;50.872;4.386;2023-08-20T03:35:02;3.08;;;1.60;;
14472;SDS011;7322;50.872;4.386;2023-08-20T03:37:31;2.80;;;1.38;;
14472;SDS011;7322;50.872;4.386;2023-08-20T03:39:58;2.55;;;1.42;;
14472;SDS011;7322;50.872;4.386;2023-08-20T03:42:25;3.88;;;1.60;;
14472;SDS011;7322;50.872;4.386;2023-08-20T03:44:52;2.40;;;1.50;;
14472;SDS011;7322;50.872;4.386;2023-08-20T03:47:25;2.15;;;1.40;;
14472;SDS011;7322;50.872;4.386;2023-08-20T03:49:52;2.47;;;1.40;;
14472;SDS011;7322;50.872;4.386;2023-08-20T03:54:57;3.17;;;1.67;;
14472;SDS011;7322;50.872;4.386;2023-08-20T03:57:26;2.40;;;1.60;;
14472;SDS011;7322;50.872;4.386;2023-08-20T03:59:59;2.40;;;1.40;;
14472;SDS011;7322;50.872;4.386;2023-08-20T04:02:26;2.20;;;1.60;;
14472;SDS011;7322;50.872;4.386;2023-08-20T04:04:59;2.95;;;1.60;;
14472;SDS011;7322;50.872;4.386;2023-08-20T04:07:29;2.08;;;1.42;;
14472;SDS011;7322;50.872;4.386;2023-08-20T04:09:56;2.75;;;1.90;;
14472;SDS011;7322;50.872;4.386;2023-08-20T04:12:23;2.35;;;1.60;;
14472;SDS011;7322;50.872;4.386;2023-08-20T04:14:50;2.30;;;1.40;;
14472;SDS011;7322;50.872;4.386;2023-08-20T04:17:17;2.05;;;1.50;;
14472;SDS011;7322;50.872;4.386;2023-08-20T04:19:46;2.60;;;1.48;;
14472;SDS011;7322;50.872;4.386;2023-08-20T04:22:20;4.78;;;1.52;;
14472;SDS011;7322;50.872;4.386;2023-08-20T04:24:58;2.38;;;1.65;;
14472;SDS011;7322;50.872;4.386;2023-08-20T04:27:29;2.95;;;1.45;;
14472;SDS011;7322;50.872;4.386;2023-08-20T04:29:58;1.88;;;1.40;;
14472;SDS011;7322;50.872;4.386;2023-08-20T04:32:25;2.92;;;1.52;;
14472;SDS011;7322;50.872;4.386;2023-08-20T04:34:54;2.47;;;1.40;;
14472;SDS011;7322;50.872;4.386;2023-08-20T04:37:27;3.25;;;1.90;;
14472;SDS011;7322;50.872;4.386;2023-08-20T04:40:05;1.73;;;1.52;;
14472;SDS011;7322;50.872;4.386;2023-08-20T04:42:33;3.72;;;1.70;;
14472;SDS011;7322;50.872;4.386;2023-08-20T04:45:01;3.25;;;1.60;;
14472;SDS011;7322;50.872;4.386;2023-08-20T04:47:28;2.90;;;1.55;;
14472;SDS011;7322;50.872;4.386;2023-08-20T04:50:00;2.50;;;1.40;;
14472;SDS011;7322;50.872;4.386;2023-08-20T04:52:29;1.90;;;1.40;;
14472;SDS011;7322;50.872;4.386;2023-08-20T04:54:58;2.45;;;1.58;;
14472;SDS011;7322;50.872;4.386;2023-08-20T04:57:27;2.17;;;1.45;;
14472;SDS011;7322;50.872;4.386;2023-08-20T04:59:55;2.30;;;1.38;;
14472;SDS011;7322;50.872;4.386;2023-08-20T05:02:28;3.22;;;1.65;;
14472;SDS011;7322;50.872;4.386;2023-08-20T05:04:59;2.92;;;1.48;;
14472;SDS011;7322;50.872;4.386;2023-08-20T05:07:34;2.75;;;1.60;;
14472;SDS011;7322;50.872;4.386;2023-08-20T05:10:08;2.60;;;1.48;;
14472;SDS011;7322;50.872;4.386;2023-08-20T05:12:36;2.25;;;1.50;;
14472;SDS011;7322;50.872;4.386;2023-08-20T05:15:09;1.90;;;1.65;;
14472;SDS011;7322;50.872;4.386;2023-08-20T05:17:43;2.67;;;1.50;;
14472;SDS011;7322;50.872;4.386;2023-08-20T05:20:10;2.88;;;1.42;;
14472;SDS011;7322;50.872;4.386;2023-08-20T05:22:38;2.58;;;1.50;;
14472;SDS011;7322;50.872;4.386;2023-08-20T05:25:12;4.32;;;1.80;;
14472;SDS011;7322;50.872;4.386;2023-08-20T05:27:42;2.20;;;1.30;;
14472;SDS011;7322;50.872;4.386;2023-08-20T05:30:10;3.70;;;1.95;;
14472;SDS011;7322;50.872;4.386;2023-08-20T05:32:40;2.35;;;1.52;;
14472;SDS011;7322;50.872;4.386;2023-08-20T05:35:08;2.60;;;1.38;;
14472;SDS011;7322;50.872;4.386;2023-08-20T05:37:35;2.50;;;1.73;;
14472;SDS011;7322;50.872;4.386;2023-08-20T05:40:05;2.13;;;1.50;;
14472;SDS011;7322;50.872;4.386;2023-08-20T05:42:34;2.33;;;1.50;;
14472;SDS011;7322;50.872;4.386;2023-08-20T05:45:11;2.70;;;1.58;;
14472;SDS011;7322;50.872;4.386;2023-08-20T05:47:41;3.05;;;1.92;;
14472;SDS011;7322;50.872;4.386;2023-08-20T05:50:08;2.22;;;1.48;;
14472;SDS011;7322;50.872;4.386;2023-08-20T05:52:40;2.20;;;1.50;;
14472;SDS011;7322;50.872;4.386;2023-08-20T05:55:09;3.08;;;2.00;;
14472;SDS011;7322;50.872;4.386;2023-08-20T05:57:38;3.42;;;1.85;;
14472;SDS011;7322;50.872;4.386;2023-08-20T06:00:17;2.67;;;1.70;;
14472;SDS011;7322;50.872;4.386;2023-08-20T06:02:46;3.33;;;2.05;;
14472;SDS011;7322;50.872;4.386;2023-08-20T06:05:14;3.38;;;2.22;;
14472;SDS011;7322;50.872;4.386;2023-08-20T06:10:31;2.50;;;1.77;;
14472;SDS011;7322;50.872;4.386;2023-08-20T06:12:59;2.35;;;1.85;;
14472;SDS011;7322;50.872;4.386;2023-08-20T06:15:27;3.00;;;2.00;;
14472;SDS011;7322;50.872;4.386;2023-08-20T06:17:58;2.90;;;2.10;;
14472;SDS011;7322;50.872;4.386;2023-08-20T06:20:27;3.60;;;2.08;;
14472;SDS011;7322;50.872;4.386;2023-08-20T06:22:55;2.70;;;2.20;;
14472;SDS011;7322;50.872;4.386;2023-08-20T06:25:22;3.33;;;2.28;;
14472;SDS011;7322;50.872;4.386;2023-08-20T06:27:51;2.83;;;1.88;;
14472;SDS011;7322;50.872;4.386;2023-08-20T06:30:20;3.05;;;1.80;;
14472;SDS011;7322;50.872;4.386;2023-08-20T06:32:50;3.38;;;1.90;;
14472;SDS011;7322;50.872;4.386;2023-08-20T06:35:17;3.40;;;2.05;;
14472;SDS011;7322;50.872;4.386;2023-08-20T06:37:46;2.72;;;2.00;;
14472;SDS011;7322;50.872;4.386;2023-08-20T06:40:13;3.00;;;2.00;;
14472;SDS011;7322;50.872;4.386;2023-08-20T06:42:43;2.45;;;2.00;;
14472;SDS011;7322;50.872;4.386;2023-08-20T06:45:11;3.28;;;2.20;;
14472;SDS011;7322;50.872;4.386;2023-08-20T06:47:40;2.90;;;1.92;;
14472;SDS011;7322;50.872;4.386;2023-08-20T06:50:16;2.83;;;2.10;;
14472;SDS011;7322;50.872;4.386;2023-08-20T06:52:45;3.47;;;2.05;;
14472;SDS011;7322;50.872;4.386;2023-08-20T06:55:12;2.35;;;1.73;;
14472;SDS011;7322;50.872;4.386;2023-08-20T06:57:39;2.63;;;2.05;;
14472;SDS011;7322;50.872;4.386;2023-08-20T07:00:07;3.28;;;2.13;;
14472;SDS011;7322;50.872;4.386;2023-08-20T07:02:36;3.10;;;2.10;;
14472;SDS011;7322;50.872;4.386;2023-08-20T07:05:06;3.80;;;2.20;;
14472;SDS011;7322;50.872;4.386;2023-08-20T07:07:38;2.65;;;1.95;;
14472;SDS011;7322;50.872;4.386;2023-08-20T07:10:05;3.08;;;2.10;;
14472;SDS011;7322;50.872;4.386;2023-08-20T07:12:33;2.30;;;2.10;;
14472;SDS011;7322;50.872;4.386;2023-08-20T07:15:01;3.92;;;1.90;;
14472;SDS011;7322;50.872;4.386;2023-08-20T07:17:33;3.55;;;2.15;;
14472;SDS011;7322;50.872;4.386;2023-08-20T07:20:07;3.08;;;2.15;;
14472;SDS011;7322;50.872;4.386;2023-08-20T07:22:35;2.35;;;2.00;;
14472;SDS011;7322;50.872;4.386;2023-08-20T07:25:04;3.42;;;2.30;;
14472;SDS011;7322;50.872;4.386;2023-08-20T07:27:31;2.80;;;2.00;;
14472;SDS011;7322;50.872;4.386;2023-08-20T07:29:59;2.58;;;2.03;;
14472;SDS011;7322;50.872;4.386;2023-08-20T07:32:27;3.08;;;1.90;;
14472;SDS011;7322;50.872;4.386;2023-08-20T07:35:00;3.10;;;1.90;;
14472;SDS011;7322;50.872;4.386;2023-08-20T07:37:28;3.88;;;1.92;;
14472;SDS011;7322;50.872;4.386;2023-08-20T07:45:19;2.85;;;1.75;;
14472;SDS011;7322;50.872;4.386;2023-08-20T07:47:46;4.00;;;2.20;;
14472;SDS011;7322;50.872;4.386;2023-08-20T07:50:28;3.03;;;1.80;;
14472;SDS011;7322;50.872;4.386;2023-08-20T07:52:55;2.58;;;1.80;;
14472;SDS011;7322;50.872;4.386;2023-08-20T07:55:32;2.60;;;1.60;;
14472;SDS011;7322;50.872;4.386;2023-08-20T07:58:08;3.05;;;1.90;;
14472;SDS011;7322;50.872;4.386;2023-08-20T08:00:36;2.58;;;1.75;;
14472;SDS011;7322;50.872;4.386;2023-08-20T08:03:03;3.17;;;1.63;;
14472;SDS011;7322;50.872;4.386;2023-08-20T08:05:46;3.20;;;2.00;;
14472;SDS011;7322;50.872;4.386;2023-08-20T08:08:17;2.47;;;1.80;;
14472;SDS011;7322;50.872;4.386;2023-08-20T08:10:46;3.70;;;1.98;;
14472;SDS011;7322;50.872;4.386;2023-08-20T08:13:13;2.22;;;1.70;;
14472;SDS011;7322;50.872;4.386;2023-08-20T08:15:41;1.65;;;1.35;;
14472;SDS011;7322;50.872;4.386;2023-08-20T08:18:11;2.33;;;1.50;;
14472;SDS011;7322;50.872;4.386;2023-08-20T08:20:38;4.00;;;2.05;;
14472;SDS011;7322;50.872;4.386;2023-08-20T08:23:15;2.35;;;1.52;;
14472;SDS011;7322;50.872;4.386;2023-08-20T08:28:16;1.70;;;1.60;;
14472;SDS011;7322;50.872;4.386;2023-08-20T08:30:46;2.45;;;1.70;;
14472;SDS011;7322;50.872;4.386;2023-08-20T08:33:15;2.10;;;1.50;;
14472;SDS011;7322;50.872;4.386;2023-08-20T08:35:47;2.30;;;1.65;;
14472;SDS011;7322;50.872;4.386;2023-08-20T08:38:14;2.42;;;1.50;;
14472;SDS011;7322;50.872;4.386;2023-08-20T08:40:43;2.28;;;1.65;;
14472;SDS011;7322;50.872;4.386;2023-08-20T08:43:19;2.22;;;1.58;;
14472;SDS011;7322;50.872;4.386;2023-08-20T08:45:47;2.55;;;1.70;;
14472;SDS011;7322;50.872;4.386;2023-08-20T08:48:15;1.85;;;1.30;;
14472;SDS011;7322;50.872;4.386;2023-08-20T08:50:46;2.08;;;1.50;;
14472;SDS011;7322;50.872;4.386;2023-08-20T08:53:13;3.88;;;1.70;;
14472;SDS011;7322;50.872;4.386;2023-08-20T08:55:43;2.53;;;1.20;;
14472;SDS011;7322;50.872;4.386;2023-08-20T09:03:16;3.05;;;1.27;;
14472;SDS011;7322;50.872;4.386;2023-08-20T09:05:46;2.83;;;1.40;;
14472;SDS011;7322;50.872;4.386;2023-08-20T09:08:21;1.70;;;1.33;;
14472;SDS011;7322;50.872;4.386;2023-08-20T09:10:51;1.63;;;1.30;;
14472;SDS011;7322;50.872;4.386;2023-08-20T09:13:21;2.58;;;1.73;;
14472;SDS011;7322;50.872;4.386;2023-08-20T09:15:59;2.63;;;1.30;;
14472;SDS011;7322;50.872;4.386;2023-08-20T09:18:28;2.17;;;1.40;;
14472;SDS011;7322;50.872;4.386;2023-08-20T09:20:58;3.13;;;1.20;;
14472;SDS011;7322;50.872;4.386;2023-08-20T09:23:28;2.47;;;1.50;;
14472;SDS011;7322;50.872;4.386;2023-08-20T09:25:56;1.30;;;1.20;;
14472;SDS011;7322;50.872;4.386;2023-08-20T09:28:24;2.17;;;1.35;;
14472;SDS011;7322;50.872;4.386;2023-08-20T09:30:54;2.45;;;1.40;;
14472;SDS011;7322;50.872;4.386;2023-08-20T09:33:25;3.15;;;1.55;;
14472;SDS011;7322;50.872;4.386;2023-08-20T09:38:24;2.22;;;1.20;;
14472;SDS011;7322;50.872;4.386;2023-08-20T09:43:25;1.73;;;1.20;;
14472;SDS011;7322;50.872;4.386;2023-08-20T09:46:05;1.80;;;1.27;;
14472;SDS011;7322;50.872;4.386;2023-08-20T09:48:34;1.30;;;1.15;;
14472;SDS011;7322;50.872;4.386;2023-08-20T09:51:05;1.88;;;1.25;;
14472;SDS011;7322;50.872;4.386;2023-08-20T09:53:39;1.65;;;1.27;;
14472;SDS011;7322;50.872;4.386;2023-08-20T09:56:21;2.00;;;1.40;;
14472;SDS011;7322;50.872;4.386;2023-08-20T09:58:54;2.50;;;1.30;;
14472;SDS011;7322;50.872;4.386;2023-08-20T10:01:23;1.30;;;1.20;;
14472;SDS011;7322;50.872;4.386;2023-08-20T10:03:52;1.63;;;1.15;;
14472;SDS011;7322;50.872;4.386;2023-08-20T10:06:25;1.92;;;1.10;;
14472;SDS011;7322;50.872;4.386;2023-08-20T10:08:56;1.35;;;1.13;;
14472;SDS011;7322;50.872;4.386;2023-08-20T10:11:26;2.25;;;1.20;;
14472;SDS011;7322;50.872;4.386;2023-08-20T10:13:53;1.40;;;1.10;;
14472;SDS011;7322;50.872;4.386;2023-08-20T10:16:21;1.58;;;1.13;;
14472;SDS011;7322;50.872;4.386;2023-08-20T10:18:50;3.30;;;1.40;;
14472;SDS011;7322;50.872;4.386;2023-08-20T10:21:24;1.75;;;1.20;;
14472;SDS011;7322;50.872;4.386;2023-08-20T10:23:53;1.10;;;0.98;;
14472;SDS011;7322;50.872;4.386;2023-08-20T10:26:26;2.28;;;1.20;;
14472;SDS011;7322;50.872;4.386;2023-08-20T10:31:55;1.85;;;1.10;;
14472;SDS011;7322;50.872;4.386;2023-08-20T10:34:31;1.77;;;0.98;;
14472;SDS011;7322;50.872;4.386;2023-08-20T10:37:02;1.90;;;1.10;;
14472;SDS011;7322;50.872;4.386;2023-08-20T10:39:34;1.30;;;1.00;;
14472;SDS011;7322;50.872;4.386;2023-08-20T10:42:09;1.23;;;0.90;;
14472;SDS011;7322;50.872;4.386;2023-08-20T10:44:58;1.35;;;1.10;;
14472;SDS011;7322;50.872;4.386;2023-08-20T10:47:42;1.08;;;0.93;;
14472;SDS011;7322;50.872;4.386;2023-08-20T10:50:11;1.98;;;0.95;;
14472;SDS011;7322;50.872;4.386;2023-08-20T10:52:48;1.55;;;0.90;;
14472;SDS011;7322;50.872;4.386;2023-08-20T10:55:16;1.95;;;1.02;;
14472;SDS011;7322;50.872;4.386;2023-08-20T10:57:55;1.83;;;1.10;;
14472;SDS011;7322;50.872;4.386;2023-08-20T11:03:10;1.50;;;1.10;;
14472;SDS011;7322;50.872;4.386;2023-08-20T11:05:38;2.22;;;1.00;;
14472;SDS011;7322;50.872;4.386;2023-08-20T11:08:07;1.63;;;1.05;;
14472;SDS011;7322;50.872;4.386;2023-08-20T11:10:39;1.52;;;1.05;;
14472;SDS011;7322;50.872;4.386;2023-08-20T11:13:07;1.10;;;0.88;;
14472;SDS011;7322;50.872;4.386;2023-08-20T11:15:35;1.83;;;1.20;;
14472;SDS011;7322;50.872;4.386;2023-08-20T11:18:04;1.27;;;0.90;;
14472;SDS011;7322;50.872;4.386;2023-08-20T11:23:06;1.17;;;0.90;;
14472;SDS011;7322;50.872;4.386;2023-08-20T11:25:34;1.65;;;1.10;;
14472;SDS011;7322;50.872;4.386;2023-08-20T11:28:06;1.80;;;1.02;;
14472;SDS011;7322;50.872;4.386;2023-08-20T11:30:35;1.20;;;1.00;;
14472;SDS011;7322;50.872;4.386;2023-08-20T11:33:14;1.10;;;0.93;;
14472;SDS011;7322;50.872;4.386;2023-08-20T11:35:46;1.13;;;0.90;;
14472;SDS011;7322;50.872;4.386;2023-08-20T11:38:17;2.10;;;1.20;;
14472;SDS011;7322;50.872;4.386;2023-08-20T11:40:45;1.20;;;0.90;;
14472;SDS011;7322;50.872;4.386;2023-08-20T11:43:14;1.70;;;1.10;;
14472;SDS011;7322;50.872;4.386;2023-08-20T11:45:46;1.00;;;0.88;;
14472;SDS011;7322;50.872;4.386;2023-08-20T11:48:16;1.40;;;1.00;;
14472;SDS011;7322;50.872;4.386;2023-08-20T11:50:46;1.25;;;0.82;;
14472;SDS011;7322;50.872;4.386;2023-08-20T11:53:14;1.67;;;0.90;;
14472;SDS011;7322;50.872;4.386;2023-08-20T11:55:48;1.75;;;0.90;;
14472;SDS011;7322;50.872;4.386;2023-08-20T11:58:18;1.65;;;0.80;;
14472;SDS011;7322;50.872;4.386;2023-08-20T12:00:48;1.60;;;0.95;;
14472;SDS011;7322;50.872;4.386;2023-08-20T12:03:17;0.90;;;0.80;;
14472;SDS011;7322;50.872;4.386;2023-08-20T12:05:46;1.35;;;0.90;;
14472;SDS011;7322;50.872;4.386;2023-08-20T12:10:45;1.83;;;0.90;;
14472;SDS011;7322;50.872;4.386;2023-08-20T12:13:13;1.20;;;0.90;;
14472;SDS011;7322;50.872;4.386;2023-08-20T12:15:40;1.17;;;1.08;;
14472;SDS011;7322;50.872;4.386;2023-08-20T12:18:12;1.20;;;1.10;;
14472;SDS011;7322;50.872;4.386;2023-08-20T12:20:39;1.80;;;1.17;;
14472;SDS011;7322;50.872;4.386;2023-08-20T12:23:12;1.17;;;1.00;;
14472;SDS011;7322;50.872;4.386;2023-08-20T12:25:41;1.85;;;1.00;;
14472;SDS011;7322;50.872;4.386;2023-08-20T12:28:08;0.80;;;0.80;;
14472;SDS011;7322;50.872;4.386;2023-08-20T12:30:37;1.88;;;1.08;;
14472;SDS011;7322;50.872;4.386;2023-08-20T12:33:12;1.23;;;1.00;;
14472;SDS011;7322;50.872;4.386;2023-08-20T12:35:41;1.17;;;1.05;;
14472;SDS011;7322;50.872;4.386;2023-08-20T12:38:08;0.95;;;0.85;;
14472;SDS011;7322;50.872;4.386;2023-08-20T12:40:36;1.55;;;1.13;;
14472;SDS011;7322;50.872;4.386;2023-08-20T12:43:03;2.45;;;1.15;;
14472;SDS011;7322;50.872;4.386;2023-08-20T12:45:30;2.38;;;1.10;;
14472;SDS011;7322;50.872;4.386;2023-08-20T12:47:59;1.35;;;1.10;;
14472;SDS011;7322;50.872;4.386;2023-08-20T12:50:26;1.23;;;1.10;;
14472;SDS011;7322;50.872;4.386;2023-08-20T12:52:59;1.73;;;1.13;;
14472;SDS011;7322;50.872;4.386;2023-08-20T12:55:27;2.03;;;1.70;;
14472;SDS011;7322;50.872;4.386;2023-08-20T12:57:56;3.53;;;3.22;;
14472;SDS011;7322;50.872;4.386;2023-08-20T13:00:27;4.07;;;3.65;;
14472;SDS011;7322;50.872;4.386;2023-08-20T13:03:03;3.60;;;3.30;;
14472;SDS011;7322;50.872;4.386;2023-08-20T13:05:33;3.65;;;3.17;;
14472;SDS011;7322;50.872;4.386;2023-08-20T13:08:01;3.80;;;2.70;;
14472;SDS011;7322;50.872;4.386;2023-08-20T13:10:29;3.15;;;2.65;;
14472;SDS011;7322;50.872;4.386;2023-08-20T13:12:59;2.53;;;2.33;;
14472;SDS011;7322;50.872;4.386;2023-08-20T13:15:30;2.60;;;2.30;;
14472;SDS011;7322;50.872;4.386;2023-08-20T13:17:59;5.13;;;2.33;;
14472;SDS011;7322;50.872;4.386;2023-08-20T13:20:29;2.88;;;2.30;;
14472;SDS011;7322;50.872;4.386;2023-08-20T13:22:57;3.05;;;2.38;;
14472;SDS011;7322;50.872;4.386;2023-08-20T13:25:28;2.88;;;2.20;;
14472;SDS011;7322;50.872;4.386;2023-08-20T13:27:55;2.30;;;2.10;;
14472;SDS011;7322;50.872;4.386;2023-08-20T13:30:22;2.63;;;2.10;;
14472;SDS011;7322;50.872;4.386;2023-08-20T13:32:49;2.60;;;1.95;;
14472;SDS011;7322;50.872;4.386;2023-08-20T13:35:16;2.78;;;2.00;;
14472;SDS011;7322;50.872;4.386;2023-08-20T13:37:47;3.35;;;2.00;;
14472;SDS011;7322;50.872;4.386;2023-08-20T13:40:16;3.90;;;2.15;;
14472;SDS011;7322;50.872;4.386;2023-08-20T13:42:45;3.55;;;2.10;;
14472;SDS011;7322;50.872;4.386;2023-08-20T13:45:14;2.88;;;1.95;;
14472;SDS011;7322;50.872;4.386;2023-08-20T13:47:41;2.65;;;1.98;;
14472;SDS011;7322;50.872;4.386;2023-08-20T13:50:10;2.05;;;1.95;;
14472;SDS011;7322;50.872;4.386;2023-08-20T13:52:44;2.83;;;2.00;;
14472;SDS011;7322;50.872;4.386;2023-08-20T13:55:13;2.00;;;1.80;;
14472;SDS011;7322;50.872;4.386;2023-08-20T13:57:42;1.80;;;1.70;;
14472;SDS011;7322;50.872;4.386;2023-08-20T14:00:09;2.75;;;1.70;;
14472;SDS011;7322;50.872;4.386;2023-08-20T14:02:39;2.22;;;1.83;;
14472;SDS011;7322;50.872;4.386;2023-08-20T14:05:13;2.03;;;1.83;;
14472;SDS011;7322;50.872;4.386;2023-08-20T14:07:40;2.00;;;1.80;;
14472;SDS011;7322;50.872;4.386;2023-08-20T14:10:08;2.35;;;1.95;;
14472;SDS011;7322;50.872;4.386;2023-08-20T14:12:39;2.30;;;2.10;;
14472;SDS011;7322;50.872;4.386;2023-08-20T14:15:07;2.17;;;1.85;;
14472;SDS011;7322;50.872;4.386;2023-08-20T14:17:36;2.67;;;1.80;;
14472;SDS011;7322;50.872;4.386;2023-08-20T14:20:05;3.08;;;1.75;;
14472;SDS011;7322;50.872;4.386;2023-08-20T14:22:34;2.53;;;1.95;;
14472;SDS011;7322;50.872;4.386;2023-08-20T14:25:02;4.70;;;1.70;;
14472;SDS011;7322;50.872;4.386;2023-08-20T14:27:29;2.38;;;2.03;;
14472;SDS011;7322;50.872;4.386;2023-08-20T14:32:28;2.72;;;2.00;;
14472;SDS011;7322;50.872;4.386;2023-08-20T14:34:56;2.63;;;1.80;;
14472;SDS011;7322;50.872;4.386;2023-08-20T14:37:25;1.98;;;1.70;;
14472;SDS011;7322;50.872;4.386;2023-08-20T14:39:54;2.20;;;1.88;;
14472;SDS011;7322;50.872;4.386;2023-08-20T14:42:22;3.35;;;1.88;;
14472;SDS011;7322;50.872;4.386;2023-08-20T14:44:55;2.65;;;1.88;;
14472;SDS011;7322;50.872;4.386;2023-08-20T14:47:26;2.30;;;1.63;;
14472;SDS011;7322;50.872;4.386;2023-08-20T14:49:54;4.53;;;2.20;;
14472;SDS011;7322;50.872;4.386;2023-08-20T14:52:31;2.10;;;1.67;;
14472;SDS011;7322;50.872;4.386;2023-08-20T14:55:05;2.88;;;1.63;;
14472;SDS011;7322;50.872;4.386;2023-08-20T14:57:36;2.53;;;1.98;;
14472;SDS011;7322;50.872;4.386;2023-08-20T15:00:04;2.33;;;2.00;;
14472;SDS011;7322;50.872;4.386;2023-08-20T15:02:37;2.42;;;1.83;;
14472;SDS011;7322;50.872;4.386;2023-08-20T15:07:35;2.45;;;1.67;;
14472;SDS011;7322;50.872;4.386;2023-08-20T15:10:02;2.45;;;1.60;;
14472;SDS011;7322;50.872;4.386;2023-08-20T15:12:37;3.72;;;1.60;;
14472;SDS011;7322;50.872;4.386;2023-08-20T15:15:11;1.98;;;1.80;;
14472;SDS011;7322;50.872;4.386;2023-08-20T15:17:40;2.78;;;1.80;;
14472;SDS011;7322;50.872;4.386;2023-08-20T15:20:07;1.95;;;1.73;;
14472;SDS011;7322;50.872;4.386;2023-08-20T15:22:36;2.40;;;1.67;;
14472;SDS011;7322;50.872;4.386;2023-08-20T15:25:04;2.00;;;1.60;;
14472;SDS011;7322;50.872;4.386;2023-08-20T15:27:35;1.63;;;1.40;;
14472;SDS011;7322;50.872;4.386;2023-08-20T15:30:03;1.90;;;1.70;;
14472;SDS011;7322;50.872;4.386;2023-08-20T15:32:33;2.08;;;1.80;;
14472;SDS011;7322;50.872;4.386;2023-08-20T15:35:03;2.63;;;1.88;;
14472;SDS011;7322;50.872;4.386;2023-08-20T15:37:34;2.80;;;1.83;;
14472;SDS011;7322;50.872;4.386;2023-08-20T15:40:02;2.88;;;1.70;;
14472;SDS011;7322;50.872;4.386;2023-08-20T15:42:40;2.72;;;1.50;;
14472;SDS011;7322;50.872;4.386;2023-08-20T15:45:10;2.33;;;1.60;;
14472;SDS011;7322;50.872;4.386;2023-08-20T15:47:37;2.78;;;1.83;;
14472;SDS011;7322;50.872;4.386;2023-08-20T15:50:12;2.88;;;1.58;;
14472;SDS011;7322;50.872;4.386;2023-08-20T15:52:46;1.88;;;1.65;;
14472;SDS011;7322;50.872;4.386;2023-08-20T15:57:50;3.25;;;1.52;;
14472;SDS011;7322;50.872;4.386;2023-08-20T16:00:17;2.17;;;1.60;;
14472;SDS011;7322;50.872;4.386;2023-08-20T16:02:46;1.77;;;1.63;;
14472;SDS011;7322;50.872;4.386;2023-08-20T16:05:15;2.25;;;1.40;;
14472;SDS011;7322;50.872;4.386;2023-08-20T16:07:45;2.22;;;1.60;;
14472;SDS011;7322;50.872;4.386;2023-08-20T16:10:18;2.78;;;1.60;;
14472;SDS011;7322;50.872;4.386;2023-08-20T16:12:46;2.92;;;1.60;;
14472;SDS011;7322;50.872;4.386;2023-08-20T16:15:22;2.22;;;1.42;;